sensor_id;sensor_type;location;lat;lon;timestamp;P1;durP1;ratioP1;P2;durP2;ratioP2
351;SDS011;164;50.784;6.496;2022-08-25T00:01:31;3.40;;;3.20;;
351;SDS011;164;50.784;6.496;2022-08-25T00:04:00;4.07;;;3.35;;
351;SDS011;164;50.784;6.496;2022-08-25T00:06:28;4.55;;;3.50;;
351;SDS011;164;50.784;6.496;2022-08-25T00:08:57;3.60;;;3.40;;
351;SDS011;164;50.784;6.496;2022-08-25T00:11:26;6.15;;;3.95;;
351;SDS011;164;50.784;6.496;2022-08-25T00:13:56;3.85;;;3.40;;
351;SDS011;164;50.784;6.496;2022-08-25T00:16:25;3.53;;;3.40;;
351;SDS011;164;50.784;6.496;2022-08-25T00:18:54;5.68;;;4.07;;
351;SDS011;164;50.784;6.496;2022-08-25T00:21:24;5.68;;;3.38;;
351;SDS011;164;50.784;6.496;2022-08-25T00:23:52;3.35;;;3.15;;
351;SDS011;164;50.784;6.496;2022-08-25T00:26:21;3.47;;;3.28;;
351;SDS011;164;50.784;6.496;2022-08-25T00:28:48;6.32;;;3.58;;
351;SDS011;164;50.784;6.496;2022-08-25T00:31:16;3.80;;;3.60;;
351;SDS011;164;50.784;6.496;2022-08-25T00:33:45;4.07;;;3.78;;
351;SDS011;164;50.784;6.496;2022-08-25T00:36:13;3.38;;;3.25;;
351;SDS011;164;50.784;6.496;2022-08-25T00:38:42;2.78;;;2.63;;
351;SDS011;164;50.784;6.496;2022-08-25T00:41:11;4.45;;;3.38;;
351;SDS011;164;50.784;6.496;2022-08-25T00:43:45;4.65;;;3.75;;
351;SDS011;164;50.784;6.496;2022-08-25T00:46:16;3.80;;;3.60;;
351;SDS011;164;50.784;6.496;2022-08-25T00:48:46;5.53;;;3.22;;
351;SDS011;164;50.784;6.496;2022-08-25T00:51:17;3.50;;;3.30;;
351;SDS011;164;50.784;6.496;2022-08-25T00:53:49;3.58;;;2.80;;
351;SDS011;164;50.784;6.496;2022-08-25T00:56:16;3.50;;;3.30;;
351;SDS011;164;50.784;6.496;2022-08-25T00:58:45;3.63;;;3.50;;
351;SDS011;164;50.784;6.496;2022-08-25T01:01:12;3.80;;;3.60;;
351;SDS011;164;50.784;6.496;2022-08-25T01:03:39;3.90;;;3.70;;
351;SDS011;164;50.784;6.496;2022-08-25T01:06:06;2.85;;;2.65;;
351;SDS011;164;50.784;6.496;2022-08-25T01:08:34;4.28;;;3.30;;
351;SDS011;164;50.784;6.496;2022-08-25T01:11:03;5.30;;;3.40;;
351;SDS011;164;50.784;6.496;2022-08-25T01:13:34;3.28;;;3.10;;
351;SDS011;164;50.784;6.496;2022-08-25T01:16:05;4.07;;;3.90;;
351;SDS011;164;50.784;6.496;2022-08-25T01:18:42;6.13;;;3.80;;
351;SDS011;164;50.784;6.496;2022-08-25T01:21:14;4.35;;;3.42;;
351;SDS011;164;50.784;6.496;2022-08-25T01:23:42;3.40;;;3.20;;
351;SDS011;164;50.784;6.496;2022-08-25T01:26:11;4.25;;;3.53;;
351;SDS011;164;50.784;6.496;2022-08-25T01:28:40;3.97;;;3.78;;
351;SDS011;164;50.784;6.496;2022-08-25T01:31:28;3.47;;;3.33;;
351;SDS011;164;50.784;6.496;2022-08-25T01:33:56;3.67;;;3.47;;
351;SDS011;164;50.784;6.496;2022-08-25T01:36:26;3.83;;;3.63;;
351;SDS011;164;50.784;6.496;2022-08-25T01:44:04;3.33;;;3.13;;
351;SDS011;164;50.784;6.496;2022-08-25T01:46:32;5.57;;;3.83;;
351;SDS011;164;50.784;6.496;2022-08-25T01:48:59;3.72;;;3.53;;
351;SDS011;164;50.784;6.496;2022-08-25T01:51:32;3.63;;;3.20;;
351;SDS011;164;50.784;6.496;2022-08-25T01:54:02;4.07;;;3.88;;
351;SDS011;164;50.784;6.496;2022-08-25T01:56:29;4.00;;;3.80;;
351;SDS011;164;50.784;6.496;2022-08-25T01:58:56;3.63;;;3.42;;
351;SDS011;164;50.784;6.496;2022-08-25T02:01:23;3.15;;;2.95;;
351;SDS011;164;50.784;6.496;2022-08-25T02:03:52;4.57;;;3.67;;
351;SDS011;164;50.784;6.496;2022-08-25T02:06:20;3.75;;;3.55;;
351;SDS011;164;50.784;6.496;2022-08-25T02:08:53;3.50;;;3.30;;
351;SDS011;164;50.784;6.496;2022-08-25T02:11:21;3.78;;;3.58;;
351;SDS011;164;50.784;6.496;2022-08-25T02:13:49;4.20;;;3.95;;
351;SDS011;164;50.784;6.496;2022-08-25T02:16:17;3.53;;;3.33;;
351;SDS011;164;50.784;6.496;2022-08-25T02:18:47;4.43;;;4.13;;
351;SDS011;164;50.784;6.496;2022-08-25T02:21:14;3.90;;;3.70;;
351;SDS011;164;50.784;6.496;2022-08-25T02:23:42;7.28;;;3.65;;
351;SDS011;164;50.784;6.496;2022-08-25T02:26:10;5.07;;;4.78;;
351;SDS011;164;50.784;6.496;2022-08-25T02:28:40;4.50;;;4.20;;
351;SDS011;164;50.784;6.496;2022-08-25T02:31:08;4.22;;;3.97;;
351;SDS011;164;50.784;6.496;2022-08-25T02:33:35;6.20;;;4.00;;
351;SDS011;164;50.784;6.496;2022-08-25T02:36:02;4.85;;;4.07;;
351;SDS011;164;50.784;6.496;2022-08-25T02:38:30;4.20;;;3.95;;
351;SDS011;164;50.784;6.496;2022-08-25T02:40:58;4.97;;;4.68;;
351;SDS011;164;50.784;6.496;2022-08-25T02:43:27;3.92;;;3.72;;
351;SDS011;164;50.784;6.496;2022-08-25T02:45:54;4.60;;;3.80;;
351;SDS011;164;50.784;6.496;2022-08-25T02:48:21;4.45;;;4.15;;
351;SDS011;164;50.784;6.496;2022-08-25T02:50:48;4.85;;;4.55;;
351;SDS011;164;50.784;6.496;2022-08-25T02:53:16;3.58;;;3.38;;
351;SDS011;164;50.784;6.496;2022-08-25T02:55:44;5.32;;;3.92;;
351;SDS011;164;50.784;6.496;2022-08-25T02:58:11;4.20;;;3.95;;
351;SDS011;164;50.784;6.496;2022-08-25T03:00:39;3.78;;;3.58;;
351;SDS011;164;50.784;6.496;2022-08-25T03:03:06;4.00;;;3.80;;
351;SDS011;164;50.784;6.496;2022-08-25T03:05:34;3.90;;;3.70;;
351;SDS011;164;50.784;6.496;2022-08-25T03:08:01;4.72;;;4.15;;
351;SDS011;164;50.784;6.496;2022-08-25T03:10:28;5.32;;;4.10;;
351;SDS011;164;50.784;6.496;2022-08-25T03:18:55;4.00;;;3.80;;
351;SDS011;164;50.784;6.496;2022-08-25T03:21:23;3.90;;;3.70;;
351;SDS011;164;50.784;6.496;2022-08-25T03:23:50;4.95;;;4.28;;
351;SDS011;164;50.784;6.496;2022-08-25T03:26:17;4.78;;;4.47;;
351;SDS011;164;50.784;6.496;2022-08-25T03:29:02;4.70;;;4.45;;
351;SDS011;164;50.784;6.496;2022-08-25T03:31:30;4.60;;;4.30;;
351;SDS011;164;50.784;6.496;2022-08-25T03:33:58;4.95;;;4.70;;
351;SDS011;164;50.784;6.496;2022-08-25T03:36:26;4.60;;;4.30;;
351;SDS011;164;50.784;6.496;2022-08-25T03:38:54;5.03;;;4.72;;
351;SDS011;164;50.784;6.496;2022-08-25T03:41:22;5.28;;;5.03;;
351;SDS011;164;50.784;6.496;2022-08-25T03:43:52;4.97;;;4.68;;
351;SDS011;164;50.784;6.496;2022-08-25T03:46:21;5.22;;;4.93;;
351;SDS011;164;50.784;6.496;2022-08-25T03:48:50;4.55;;;4.07;;
351;SDS011;164;50.784;6.496;2022-08-25T03:51:20;5.03;;;4.72;;
351;SDS011;164;50.784;6.496;2022-08-25T03:53:47;4.72;;;4.43;;
351;SDS011;164;50.784;6.496;2022-08-25T03:56:15;5.78;;;4.45;;
351;SDS011;164;50.784;6.496;2022-08-25T03:58:42;6.10;;;5.00;;
351;SDS011;164;50.784;6.496;2022-08-25T04:01:09;5.05;;;4.75;;
351;SDS011;164;50.784;6.496;2022-08-25T04:03:36;4.40;;;4.10;;
351;SDS011;164;50.784;6.496;2022-08-25T04:06:04;4.10;;;3.90;;
351;SDS011;164;50.784;6.496;2022-08-25T04:08:34;4.80;;;4.50;;
351;SDS011;164;50.784;6.496;2022-08-25T04:11:04;5.05;;;4.22;;
351;SDS011;164;50.784;6.496;2022-08-25T04:13:32;4.90;;;4.60;;
351;SDS011;164;50.784;6.496;2022-08-25T04:15:59;4.65;;;4.35;;
351;SDS011;164;50.784;6.496;2022-08-25T04:18:25;5.10;;;4.80;;
351;SDS011;164;50.784;6.496;2022-08-25T04:21:00;5.78;;;4.70;;
351;SDS011;164;50.784;6.496;2022-08-25T04:23:29;5.18;;;4.88;;
351;SDS011;164;50.784;6.496;2022-08-25T04:25:57;4.57;;;4.28;;
351;SDS011;164;50.784;6.496;2022-08-25T04:28:24;4.68;;;4.38;;
351;SDS011;164;50.784;6.496;2022-08-25T04:30:51;5.55;;;5.25;;
351;SDS011;164;50.784;6.496;2022-08-25T04:33:18;4.90;;;4.60;;
351;SDS011;164;50.784;6.496;2022-08-25T04:35:46;4.63;;;4.32;;
351;SDS011;164;50.784;6.496;2022-08-25T04:38:13;5.95;;;5.65;;
351;SDS011;164;50.784;6.496;2022-08-25T04:40:40;5.30;;;5.00;;
351;SDS011;164;50.784;6.496;2022-08-25T04:43:08;5.22;;;4.93;;
351;SDS011;164;50.784;6.496;2022-08-25T04:45:36;5.15;;;4.85;;
351;SDS011;164;50.784;6.496;2022-08-25T04:48:04;5.18;;;4.88;;
351;SDS011;164;50.784;6.496;2022-08-25T04:50:31;4.47;;;4.20;;
351;SDS011;164;50.784;6.496;2022-08-25T04:52:58;4.20;;;3.95;;
351;SDS011;164;50.784;6.496;2022-08-25T04:55:25;4.57;;;4.28;;
351;SDS011;164;50.784;6.496;2022-08-25T04:57:53;4.93;;;4.63;;
351;SDS011;164;50.784;6.496;2022-08-25T05:00:21;3.70;;;3.50;;
351;SDS011;164;50.784;6.496;2022-08-25T05:02:48;4.75;;;4.45;;
351;SDS011;164;50.784;6.496;2022-08-25T05:05:15;4.68;;;4.38;;
351;SDS011;164;50.784;6.496;2022-08-25T05:07:42;4.30;;;4.00;;
351;SDS011;164;50.784;6.496;2022-08-25T05:10:09;4.60;;;4.30;;
351;SDS011;164;50.784;6.496;2022-08-25T05:12:36;4.50;;;4.20;;
351;SDS011;164;50.784;6.496;2022-08-25T05:15:03;4.38;;;4.10;;
351;SDS011;164;50.784;6.496;2022-08-25T05:17:46;6.10;;;4.82;;
351;SDS011;164;50.784;6.496;2022-08-25T05:20:13;5.05;;;4.45;;
351;SDS011;164;50.784;6.496;2022-08-25T05:22:42;4.53;;;4.22;;
351;SDS011;164;50.784;6.496;2022-08-25T05:25:10;5.63;;;5.32;;
351;SDS011;164;50.784;6.496;2022-08-25T05:27:38;5.07;;;4.78;;
351;SDS011;164;50.784;6.496;2022-08-25T05:30:06;5.43;;;5.05;;
351;SDS011;164;50.784;6.496;2022-08-25T05:32:35;10.63;;;5.22;;
351;SDS011;164;50.784;6.496;2022-08-25T05:35:05;5.43;;;5.13;;
351;SDS011;164;50.784;6.496;2022-08-25T05:37:33;5.03;;;4.72;;
351;SDS011;164;50.784;6.496;2022-08-25T05:40:00;4.53;;;4.32;;
351;SDS011;164;50.784;6.496;2022-08-25T05:42:27;5.25;;;4.97;;
351;SDS011;164;50.784;6.496;2022-08-25T05:44:54;4.63;;;4.35;;
351;SDS011;164;50.784;6.496;2022-08-25T05:47:21;5.03;;;4.70;;
351;SDS011;164;50.784;6.496;2022-08-25T05:49:48;4.47;;;4.20;;
351;SDS011;164;50.784;6.496;2022-08-25T05:52:17;4.90;;;4.40;;
351;SDS011;164;50.784;6.496;2022-08-25T05:54:44;4.82;;;4.53;;
351;SDS011;164;50.784;6.496;2022-08-25T05:57:11;5.15;;;4.85;;
351;SDS011;164;50.784;6.496;2022-08-25T05:59:38;7.30;;;4.50;;
351;SDS011;164;50.784;6.496;2022-08-25T06:02:05;4.30;;;4.03;;
351;SDS011;164;50.784;6.496;2022-08-25T06:04:50;5.55;;;4.55;;
351;SDS011;164;50.784;6.496;2022-08-25T06:07:18;6.32;;;5.15;;
351;SDS011;164;50.784;6.496;2022-08-25T06:09:46;6.10;;;4.65;;
351;SDS011;164;50.784;6.496;2022-08-25T06:12:14;4.78;;;4.47;;
351;SDS011;164;50.784;6.496;2022-08-25T06:14:43;4.90;;;4.60;;
351;SDS011;164;50.784;6.496;2022-08-25T06:17:10;6.80;;;4.50;;
351;SDS011;164;50.784;6.496;2022-08-25T06:19:37;4.00;;;3.80;;
351;SDS011;164;50.784;6.496;2022-08-25T06:22:04;4.82;;;4.57;;
351;SDS011;164;50.784;6.496;2022-08-25T06:24:33;5.10;;;4.80;;
351;SDS011;164;50.784;6.496;2022-08-25T06:27:00;5.38;;;4.15;;
351;SDS011;164;50.784;6.496;2022-08-25T06:29:28;4.43;;;4.13;;
351;SDS011;164;50.784;6.496;2022-08-25T06:31:55;5.03;;;3.88;;
351;SDS011;164;50.784;6.496;2022-08-25T06:34:22;10.57;;;4.75;;
351;SDS011;164;50.784;6.496;2022-08-25T06:36:50;5.32;;;4.68;;
351;SDS011;164;50.784;6.496;2022-08-25T06:39:17;7.32;;;3.67;;
351;SDS011;164;50.784;6.496;2022-08-25T06:41:45;10.77;;;4.45;;
351;SDS011;164;50.784;6.496;2022-08-25T06:44:17;4.70;;;4.40;;
351;SDS011;164;50.784;6.496;2022-08-25T06:46:44;4.50;;;4.20;;
351;SDS011;164;50.784;6.496;2022-08-25T06:49:11;5.80;;;5.10;;
351;SDS011;164;50.784;6.496;2022-08-25T06:51:39;8.30;;;4.72;;
351;SDS011;164;50.784;6.496;2022-08-25T06:54:07;5.18;;;3.95;;
351;SDS011;164;50.784;6.496;2022-08-25T06:56:35;6.25;;;3.38;;
351;SDS011;164;50.784;6.496;2022-08-25T06:59:04;3.90;;;3.70;;
351;SDS011;164;50.784;6.496;2022-08-25T07:01:32;4.10;;;3.90;;
351;SDS011;164;50.784;6.496;2022-08-25T07:04:01;5.80;;;4.18;;
351;SDS011;164;50.784;6.496;2022-08-25T07:06:31;6.80;;;3.58;;
351;SDS011;164;50.784;6.496;2022-08-25T07:08:59;4.25;;;3.97;;
351;SDS011;164;50.784;6.496;2022-08-25T07:11:27;4.78;;;4.05;;
351;SDS011;164;50.784;6.496;2022-08-25T07:13:59;3.40;;;3.20;;
351;SDS011;164;50.784;6.496;2022-08-25T07:16:28;4.10;;;3.90;;
351;SDS011;164;50.784;6.496;2022-08-25T07:18:56;4.60;;;4.22;;
351;SDS011;164;50.784;6.496;2022-08-25T07:21:24;3.63;;;3.42;;
351;SDS011;164;50.784;6.496;2022-08-25T07:23:52;5.25;;;3.80;;
351;SDS011;164;50.784;6.496;2022-08-25T07:26:23;4.55;;;3.75;;
351;SDS011;164;50.784;6.496;2022-08-25T07:28:52;3.78;;;3.38;;
351;SDS011;164;50.784;6.496;2022-08-25T07:31:31;5.95;;;3.72;;
351;SDS011;164;50.784;6.496;2022-08-25T07:33:59;4.40;;;3.88;;
351;SDS011;164;50.784;6.496;2022-08-25T07:36:43;6.28;;;4.22;;
351;SDS011;164;50.784;6.496;2022-08-25T07:39:11;3.75;;;3.47;;
351;SDS011;164;50.784;6.496;2022-08-25T07:41:39;3.95;;;3.05;;
351;SDS011;164;50.784;6.496;2022-08-25T07:44:07;6.70;;;3.92;;
351;SDS011;164;50.784;6.496;2022-08-25T07:46:37;3.38;;;3.20;;
351;SDS011;164;50.784;6.496;2022-08-25T07:49:04;4.33;;;3.50;;
351;SDS011;164;50.784;6.496;2022-08-25T07:51:33;4.10;;;3.08;;
351;SDS011;164;50.784;6.496;2022-08-25T07:54:00;5.43;;;3.97;;
351;SDS011;164;50.784;6.496;2022-08-25T07:56:27;9.27;;;3.90;;
351;SDS011;164;50.784;6.496;2022-08-25T07:58:54;5.10;;;3.80;;
351;SDS011;164;50.784;6.496;2022-08-25T08:01:22;5.73;;;3.80;;
351;SDS011;164;50.784;6.496;2022-08-25T08:03:51;7.30;;;3.90;;
351;SDS011;164;50.784;6.496;2022-08-25T08:06:19;4.90;;;3.53;;
351;SDS011;164;50.784;6.496;2022-08-25T08:08:48;5.10;;;3.10;;
351;SDS011;164;50.784;6.496;2022-08-25T08:11:17;5.40;;;3.90;;
351;SDS011;164;50.784;6.496;2022-08-25T08:13:47;4.80;;;3.40;;
351;SDS011;164;50.784;6.496;2022-08-25T08:16:15;3.37;;;3.10;;
351;SDS011;164;50.784;6.496;2022-08-25T08:18:43;6.03;;;3.90;;
351;SDS011;164;50.784;6.496;2022-08-25T08:21:14;3.60;;;3.40;;
351;SDS011;164;50.784;6.496;2022-08-25T08:23:42;4.20;;;2.97;;
351;SDS011;164;50.784;6.496;2022-08-25T08:26:10;3.60;;;3.00;;
351;SDS011;164;50.784;6.496;2022-08-25T08:28:37;5.53;;;2.97;;
351;SDS011;164;50.784;6.496;2022-08-25T08:31:04;5.83;;;3.20;;
351;SDS011;164;50.784;6.496;2022-08-25T08:33:32;4.23;;;3.10;;
351;SDS011;164;50.784;6.496;2022-08-25T08:36:01;3.67;;;2.93;;
351;SDS011;164;50.784;6.496;2022-08-25T08:38:31;3.20;;;3.00;;
351;SDS011;164;50.784;6.496;2022-08-25T08:41:02;4.13;;;3.07;;
351;SDS011;164;50.784;6.496;2022-08-25T08:43:55;4.90;;;2.70;;
351;SDS011;164;50.784;6.496;2022-08-25T08:46:35;3.23;;;3.00;;
351;SDS011;164;50.784;6.496;2022-08-25T08:49:10;4.03;;;2.90;;
351;SDS011;164;50.784;6.496;2022-08-25T08:51:50;3.50;;;3.03;;
351;SDS011;164;50.784;6.496;2022-08-25T08:54:23;4.00;;;3.03;;
351;SDS011;164;50.784;6.496;2022-08-25T08:56:54;3.43;;;2.87;;
351;SDS011;164;50.784;6.496;2022-08-25T08:59:30;3.10;;;2.90;;
351;SDS011;164;50.784;6.496;2022-08-25T09:02:12;3.10;;;2.90;;
351;SDS011;164;50.784;6.496;2022-08-25T09:04:45;4.10;;;3.30;;
351;SDS011;164;50.784;6.496;2022-08-25T09:07:16;4.37;;;2.97;;
351;SDS011;164;50.784;6.496;2022-08-25T09:09:48;4.50;;;2.93;;
351;SDS011;164;50.784;6.496;2022-08-25T09:12:19;7.40;;;3.40;;
351;SDS011;164;50.784;6.496;2022-08-25T09:14:54;4.90;;;2.80;;
351;SDS011;164;50.784;6.496;2022-08-25T09:17:39;4.80;;;2.83;;
351;SDS011;164;50.784;6.496;2022-08-25T09:20:33;4.93;;;3.00;;
351;SDS011;164;50.784;6.496;2022-08-25T09:23:12;2.70;;;2.50;;
351;SDS011;164;50.784;6.496;2022-08-25T09:25:52;2.70;;;2.50;;
351;SDS011;164;50.784;6.496;2022-08-25T09:28:25;3.40;;;2.80;;
351;SDS011;164;50.784;6.496;2022-08-25T09:30:57;3.97;;;2.87;;
351;SDS011;164;50.784;6.496;2022-08-25T09:33:25;6.93;;;3.10;;
351;SDS011;164;50.784;6.496;2022-08-25T09:35:54;5.03;;;2.87;;
351;SDS011;164;50.784;6.496;2022-08-25T09:38:22;5.20;;;2.40;;
351;SDS011;164;50.784;6.496;2022-08-25T09:40:53;2.80;;;2.10;;
351;SDS011;164;50.784;6.496;2022-08-25T09:43:22;2.70;;;2.30;;
351;SDS011;164;50.784;6.496;2022-08-25T09:45:57;3.97;;;2.60;;
351;SDS011;164;50.784;6.496;2022-08-25T09:48:27;2.73;;;2.43;;
351;SDS011;164;50.784;6.496;2022-08-25T09:51:07;2.47;;;2.10;;
351;SDS011;164;50.784;6.496;2022-08-25T09:53:42;3.10;;;2.23;;
351;SDS011;164;50.784;6.496;2022-08-25T09:56:16;2.13;;;1.97;;
351;SDS011;164;50.784;6.496;2022-08-25T09:58:46;2.27;;;2.00;;
351;SDS011;164;50.784;6.496;2022-08-25T10:01:14;3.03;;;2.07;;
351;SDS011;164;50.784;6.496;2022-08-25T10:06:32;2.83;;;1.97;;
351;SDS011;164;50.784;6.496;2022-08-25T10:09:03;2.77;;;2.23;;
351;SDS011;164;50.784;6.496;2022-08-25T10:11:38;2.40;;;2.30;;
351;SDS011;164;50.784;6.496;2022-08-25T10:14:18;2.27;;;1.70;;
351;SDS011;164;50.784;6.496;2022-08-25T10:16:52;4.83;;;2.60;;
351;SDS011;164;50.784;6.496;2022-08-25T10:19:38;2.40;;;2.20;;
351;SDS011;164;50.784;6.496;2022-08-25T10:22:06;2.50;;;1.73;;
351;SDS011;164;50.784;6.496;2022-08-25T10:24:35;2.30;;;2.10;;
351;SDS011;164;50.784;6.496;2022-08-25T10:27:07;4.17;;;1.90;;
351;SDS011;164;50.784;6.496;2022-08-25T10:29:50;5.83;;;2.60;;
351;SDS011;164;50.784;6.496;2022-08-25T10:32:35;4.03;;;2.57;;
351;SDS011;164;50.784;6.496;2022-08-25T10:35:12;4.63;;;2.30;;
351;SDS011;164;50.784;6.496;2022-08-25T10:37:45;2.97;;;2.37;;
351;SDS011;164;50.784;6.496;2022-08-25T10:40:24;4.23;;;3.03;;
351;SDS011;164;50.784;6.496;2022-08-25T10:43:01;3.00;;;1.87;;
351;SDS011;164;50.784;6.496;2022-08-25T10:45:34;2.43;;;2.23;;
351;SDS011;164;50.784;6.496;2022-08-25T10:48:18;4.07;;;2.37;;
351;SDS011;164;50.784;6.496;2022-08-25T10:51:00;1.97;;;1.90;;
351;SDS011;164;50.784;6.496;2022-08-25T10:53:33;2.10;;;1.83;;
351;SDS011;164;50.784;6.496;2022-08-25T10:56:11;2.27;;;1.80;;
351;SDS011;164;50.784;6.496;2022-08-25T11:01:43;3.13;;;1.83;;
351;SDS011;164;50.784;6.496;2022-08-25T11:04:23;4.63;;;1.90;;
351;SDS011;164;50.784;6.496;2022-08-25T11:06:55;2.07;;;1.93;;
351;SDS011;164;50.784;6.496;2022-08-25T11:09:27;4.00;;;2.30;;
351;SDS011;164;50.784;6.496;2022-08-25T11:11:59;3.10;;;1.70;;
351;SDS011;164;50.784;6.496;2022-08-25T11:14:35;3.57;;;1.67;;
351;SDS011;164;50.784;6.496;2022-08-25T11:17:08;1.87;;;1.80;;
351;SDS011;164;50.784;6.496;2022-08-25T11:19:38;3.00;;;2.13;;
351;SDS011;164;50.784;6.496;2022-08-25T11:22:11;2.97;;;2.00;;
351;SDS011;164;50.784;6.496;2022-08-25T11:24:46;2.53;;;1.53;;
351;SDS011;164;50.784;6.496;2022-08-25T11:27:30;2.30;;;1.77;;
351;SDS011;164;50.784;6.496;2022-08-25T11:30:06;2.07;;;1.67;;
351;SDS011;164;50.784;6.496;2022-08-25T11:32:36;2.27;;;1.90;;
351;SDS011;164;50.784;6.496;2022-08-25T11:35:05;1.97;;;1.87;;
351;SDS011;164;50.784;6.496;2022-08-25T11:37:34;4.07;;;2.10;;
351;SDS011;164;50.784;6.496;2022-08-25T11:40:20;2.93;;;2.23;;
351;SDS011;164;50.784;6.496;2022-08-25T11:43:07;3.13;;;2.10;;
351;SDS011;164;50.784;6.496;2022-08-25T11:45:50;2.87;;;2.10;;
351;SDS011;164;50.784;6.496;2022-08-25T11:48:27;1.80;;;1.80;;
351;SDS011;164;50.784;6.496;2022-08-25T11:51:03;2.73;;;2.33;;
351;SDS011;164;50.784;6.496;2022-08-25T11:53:33;3.57;;;2.33;;
351;SDS011;164;50.784;6.496;2022-08-25T11:56:02;2.53;;;2.33;;
351;SDS011;164;50.784;6.496;2022-08-25T11:58:34;3.77;;;2.67;;
351;SDS011;164;50.784;6.496;2022-08-25T12:01:07;3.17;;;2.40;;
351;SDS011;164;50.784;6.496;2022-08-25T12:03:49;2.73;;;2.33;;
351;SDS011;164;50.784;6.496;2022-08-25T12:06:20;2.80;;;2.30;;
351;SDS011;164;50.784;6.496;2022-08-25T12:08:53;5.90;;;2.33;;
351;SDS011;164;50.784;6.496;2022-08-25T12:11:50;2.80;;;1.83;;
351;SDS011;164;50.784;6.496;2022-08-25T12:14:42;1.97;;;1.80;;
351;SDS011;164;50.784;6.496;2022-08-25T12:17:18;4.00;;;2.43;;
351;SDS011;164;50.784;6.496;2022-08-25T12:19:57;3.67;;;2.37;;
351;SDS011;164;50.784;6.496;2022-08-25T12:22:41;2.20;;;2.00;;
351;SDS011;164;50.784;6.496;2022-08-25T12:25:34;2.70;;;1.93;;
351;SDS011;164;50.784;6.496;2022-08-25T12:28:20;3.20;;;2.30;;
351;SDS011;164;50.784;6.496;2022-08-25T12:30:57;3.83;;;2.10;;
351;SDS011;164;50.784;6.496;2022-08-25T12:33:33;2.43;;;2.27;;
351;SDS011;164;50.784;6.496;2022-08-25T12:36:09;4.07;;;2.57;;
351;SDS011;164;50.784;6.496;2022-08-25T12:38:51;6.40;;;2.20;;
351;SDS011;164;50.784;6.496;2022-08-25T12:41:20;3.10;;;2.30;;
351;SDS011;164;50.784;6.496;2022-08-25T12:43:49;2.20;;;2.00;;
351;SDS011;164;50.784;6.496;2022-08-25T12:46:33;2.83;;;2.20;;
351;SDS011;164;50.784;6.496;2022-08-25T12:49:03;4.00;;;2.43;;
351;SDS011;164;50.784;6.496;2022-08-25T12:51:47;2.47;;;2.30;;
351;SDS011;164;50.784;6.496;2022-08-25T12:54:20;2.10;;;1.80;;
351;SDS011;164;50.784;6.496;2022-08-25T12:56:56;3.43;;;2.40;;
351;SDS011;164;50.784;6.496;2022-08-25T12:59:32;2.00;;;1.90;;
351;SDS011;164;50.784;6.496;2022-08-25T13:02:26;2.67;;;1.90;;
351;SDS011;164;50.784;6.496;2022-08-25T13:05:19;2.70;;;1.80;;
351;SDS011;164;50.784;6.496;2022-08-25T13:08:08;2.57;;;2.37;;
351;SDS011;164;50.784;6.496;2022-08-25T13:10:50;4.33;;;2.40;;
351;SDS011;164;50.784;6.496;2022-08-25T13:13:30;2.33;;;2.13;;
351;SDS011;164;50.784;6.496;2022-08-25T13:16:05;1.90;;;1.80;;
351;SDS011;164;50.784;6.496;2022-08-25T13:18:34;3.30;;;1.80;;
351;SDS011;164;50.784;6.496;2022-08-25T13:21:04;2.30;;;2.07;;
351;SDS011;164;50.784;6.496;2022-08-25T13:23:40;1.73;;;1.70;;
351;SDS011;164;50.784;6.496;2022-08-25T13:26:09;3.70;;;2.60;;
351;SDS011;164;50.784;6.496;2022-08-25T13:28:41;4.00;;;1.80;;
351;SDS011;164;50.784;6.496;2022-08-25T13:31:13;4.20;;;2.33;;
351;SDS011;164;50.784;6.496;2022-08-25T13:33:48;3.33;;;1.70;;
351;SDS011;164;50.784;6.496;2022-08-25T13:36:17;3.20;;;2.20;;
351;SDS011;164;50.784;6.496;2022-08-25T13:39:11;4.73;;;2.90;;
351;SDS011;164;50.784;6.496;2022-08-25T13:41:43;4.00;;;2.50;;
351;SDS011;164;50.784;6.496;2022-08-25T13:44:13;3.97;;;2.40;;
351;SDS011;164;50.784;6.496;2022-08-25T13:46:42;3.73;;;1.90;;
351;SDS011;164;50.784;6.496;2022-08-25T13:49:09;2.23;;;2.03;;
351;SDS011;164;50.784;6.496;2022-08-25T13:51:37;2.37;;;2.03;;
351;SDS011;164;50.784;6.496;2022-08-25T13:54:21;2.33;;;2.17;;
351;SDS011;164;50.784;6.496;2022-08-25T13:56:50;3.83;;;1.90;;
351;SDS011;164;50.784;6.496;2022-08-25T13:59:20;5.83;;;2.63;;
351;SDS011;164;50.784;6.496;2022-08-25T14:01:51;3.30;;;2.20;;
351;SDS011;164;50.784;6.496;2022-08-25T14:04:21;2.13;;;1.50;;
351;SDS011;164;50.784;6.496;2022-08-25T14:07:06;4.50;;;2.23;;
351;SDS011;164;50.784;6.496;2022-08-25T14:09:39;2.80;;;1.70;;
351;SDS011;164;50.784;6.496;2022-08-25T14:12:24;4.83;;;2.10;;
351;SDS011;164;50.784;6.496;2022-08-25T14:14:58;2.97;;;2.10;;
351;SDS011;164;50.784;6.496;2022-08-25T14:17:27;2.30;;;1.70;;
351;SDS011;164;50.784;6.496;2022-08-25T14:19:54;2.53;;;2.33;;
351;SDS011;164;50.784;6.496;2022-08-25T14:22:22;1.70;;;1.60;;
351;SDS011;164;50.784;6.496;2022-08-25T14:24:50;2.60;;;2.00;;
351;SDS011;164;50.784;6.496;2022-08-25T14:27:18;5.40;;;2.00;;
351;SDS011;164;50.784;6.496;2022-08-25T14:29:45;2.80;;;2.07;;
351;SDS011;164;50.784;6.496;2022-08-25T14:32:15;2.97;;;2.00;;
351;SDS011;164;50.784;6.496;2022-08-25T14:34:43;2.70;;;1.90;;
351;SDS011;164;50.784;6.496;2022-08-25T14:37:11;3.20;;;2.30;;
351;SDS011;164;50.784;6.496;2022-08-25T14:39:40;4.60;;;2.37;;
351;SDS011;164;50.784;6.496;2022-08-25T14:42:08;4.40;;;2.67;;
351;SDS011;164;50.784;6.496;2022-08-25T14:44:35;3.80;;;2.20;;
351;SDS011;164;50.784;6.496;2022-08-25T14:47:06;5.43;;;2.53;;
351;SDS011;164;50.784;6.496;2022-08-25T14:49:37;2.33;;;2.10;;
351;SDS011;164;50.784;6.496;2022-08-25T14:52:11;2.37;;;2.20;;
351;SDS011;164;50.784;6.496;2022-08-25T14:54:43;3.00;;;2.00;;
351;SDS011;164;50.784;6.496;2022-08-25T14:57:11;2.57;;;2.10;;
351;SDS011;164;50.784;6.496;2022-08-25T14:59:38;3.40;;;1.60;;
351;SDS011;164;50.784;6.496;2022-08-25T15:02:05;2.27;;;1.53;;
351;SDS011;164;50.784;6.496;2022-08-25T15:04:33;1.87;;;1.80;;
351;SDS011;164;50.784;6.496;2022-08-25T15:07:03;2.63;;;2.27;;
351;SDS011;164;50.784;6.496;2022-08-25T15:09:50;3.70;;;1.93;;
351;SDS011;164;50.784;6.496;2022-08-25T15:12:16;2.63;;;2.10;;
351;SDS011;164;50.784;6.496;2022-08-25T15:14:43;2.53;;;2.30;;
351;SDS011;164;50.784;6.496;2022-08-25T15:17:10;5.10;;;2.37;;
351;SDS011;164;50.784;6.496;2022-08-25T15:19:39;4.00;;;2.43;;
351;SDS011;164;50.784;6.496;2022-08-25T15:22:08;1.80;;;1.80;;
351;SDS011;164;50.784;6.496;2022-08-25T15:24:35;2.57;;;2.23;;
351;SDS011;164;50.784;6.496;2022-08-25T15:27:03;1.70;;;1.63;;
351;SDS011;164;50.784;6.496;2022-08-25T15:29:32;2.37;;;2.03;;
351;SDS011;164;50.784;6.496;2022-08-25T15:32:00;5.33;;;1.90;;
351;SDS011;164;50.784;6.496;2022-08-25T15:34:29;2.93;;;2.30;;
351;SDS011;164;50.784;6.496;2022-08-25T15:36:56;2.37;;;1.90;;
351;SDS011;164;50.784;6.496;2022-08-25T15:39:26;4.00;;;2.23;;
351;SDS011;164;50.784;6.496;2022-08-25T15:41:53;3.40;;;2.20;;
351;SDS011;164;50.784;6.496;2022-08-25T15:44:21;2.30;;;2.10;;
351;SDS011;164;50.784;6.496;2022-08-25T15:46:48;5.23;;;2.40;;
351;SDS011;164;50.784;6.496;2022-08-25T15:49:15;2.90;;;1.90;;
351;SDS011;164;50.784;6.496;2022-08-25T15:51:42;2.00;;;1.90;;
351;SDS011;164;50.784;6.496;2022-08-25T15:54:09;2.17;;;1.90;;
351;SDS011;164;50.784;6.496;2022-08-25T15:56:39;2.50;;;1.73;;
351;SDS011;164;50.784;6.496;2022-08-25T15:59:07;4.87;;;2.03;;
351;SDS011;164;50.784;6.496;2022-08-25T16:01:37;4.93;;;2.13;;
351;SDS011;164;50.784;6.496;2022-08-25T16:04:05;3.00;;;2.53;;
351;SDS011;164;50.784;6.496;2022-08-25T16:06:32;4.00;;;2.20;;
351;SDS011;164;50.784;6.496;2022-08-25T16:08:59;3.70;;;2.30;;
351;SDS011;164;50.784;6.496;2022-08-25T16:11:27;5.87;;;2.57;;
351;SDS011;164;50.784;6.496;2022-08-25T16:13:56;3.40;;;2.37;;
351;SDS011;164;50.784;6.496;2022-08-25T16:16:24;5.00;;;3.00;;
351;SDS011;164;50.784;6.496;2022-08-25T16:18:53;1.77;;;1.73;;
351;SDS011;164;50.784;6.496;2022-08-25T16:21:21;2.13;;;1.80;;
351;SDS011;164;50.784;6.496;2022-08-25T16:23:51;3.73;;;2.67;;
351;SDS011;164;50.784;6.496;2022-08-25T16:26:19;2.27;;;2.07;;